Time;durP1;ratioP1;P1;durP2;ratioP2;P2;SDS_P1;SDS_P2;PMS_P1;PMS_P2;Temp;Humidity;BMP_temperature;BMP_pressure;BME280_temperature;BME280_humidity;BME280_pressure;Samples;Min_cycle;Max_cycle;Signal;HPM_P1;HPM_P2
2021/01/03 00:02:08;;;;;;;105.43;50.40;;;;;;;0.04;86.64;97886.44;1713659;83;21151;-73
2021/01/03 00:04:36;;;;;;;85.77;43.38;;;;;;;0.03;86.72;97890.14;1721624;83;21160;-73
2021/01/03 00:07:02;;;;;;;103.17;46.25;;;;;;;0.09;86.86;97897.80;1713870;83;21061;-73
2021/01/03 00:09:28;;;;;;;108.55;50.65;;;;;;;0.17;86.91;97898.84;1721652;83;21205;-73
2021/01/03 00:11:55;;;;;;;86.12;43.28;;;;;;;0.16;87.70;97894.55;1713693;83;21576;-73
2021/01/03 00:14:21;;;;;;;95.17;47.93;;;;;;;0.26;87.25;97897.05;1713768;83;21596;-73
2021/01/03 00:16:53;;;;;;;107.87;51.75;;;;;;;0.25;87.02;97896.72;1713766;83;21171;-73
2021/01/03 00:19:23;;;;;;;108.40;56.30;;;;;;;0.22;87.04;97885.17;1713887;83;21125;-73
2021/01/03 00:21:50;;;;;;;131.60;64.60;;;;;;;0.29;87.17;97887.80;1713752;83;21259;-73
2021/01/03 00:24:16;;;;;;;124.53;66.95;;;;;;;0.34;87.06;97889.80;1713657;83;21621;-73
2021/01/03 00:26:43;;;;;;;116.42;60.92;;;;;;;0.39;86.84;97885.97;1713829;83;21076;-73
2021/01/03 00:29:09;;;;;;;95.80;51.88;;;;;;;0.42;86.80;97880.19;1713819;83;21223;-73
2021/01/03 00:31:47;;;;;;;103.67;50.85;;;;;;;0.43;86.61;97869.34;1713750;83;21137;-73
2021/01/03 00:34:14;;;;;;;132.80;65.10;;;;;;;0.43;86.52;97860.00;1713875;83;21265;-72
2021/01/03 00:36:40;;;;;;;125.25;57.85;;;;;;;0.35;86.79;97864.80;1713761;83;21069;-72
2021/01/03 00:39:07;;;;;;;133.60;62.95;;;;;;;0.30;86.73;97860.11;1713803;83;21203;-72
2021/01/03 00:41:33;;;;;;;121.50;63.13;;;;;;;0.28;86.74;97864.33;1713825;83;21053;-72
2021/01/03 00:43:59;;;;;;;147.82;74.67;;;;;;;0.33;86.69;97861.51;1713680;83;21668;-72
2021/01/03 00:46:26;;;;;;;153.65;78.85;;;;;;;0.33;86.83;97860.18;1713839;83;22134;-72
2021/01/03 00:48:52;;;;;;;134.40;73.35;;;;;;;0.35;86.90;97860.28;1713760;83;21231;-72
2021/01/03 00:51:18;;;;;;;146.25;77.30;;;;;;;0.40;86.54;97867.09;1713704;83;21046;-72
2021/01/03 00:53:45;;;;;;;152.70;78.70;;;;;;;0.45;86.65;97865.11;1713734;83;21207;-72
2021/01/03 00:56:11;;;;;;;155.20;75.95;;;;;;;0.50;86.66;97863.92;1713725;83;21494;-72
2021/01/03 00:58:37;;;;;;;156.28;75.40;;;;;;;0.52;86.36;97868.55;1713774;83;22070;-72
2021/01/03 01:01:05;;;;;;;148.47;70.80;;;;;;;0.49;86.39;97869.77;1713650;83;21230;-72
2021/01/03 01:03:31;;;;;;;136.90;65.17;;;;;;;0.53;86.63;97864.84;1713737;83;21689;-72
2021/01/03 01:05:57;;;;;;;108.12;55.30;;;;;;;0.59;86.49;97859.94;1713723;83;21560;-72
2021/01/03 01:08:24;;;;;;;107.50;63.40;;;;;;;0.55;86.65;97858.77;1713845;83;21636;-72
2021/01/03 01:10:50;;;;;;;99.22;54.77;;;;;;;0.57;86.19;97862.02;1713719;83;21477;-72
2021/01/03 01:13:16;;;;;;;79.45;39.85;;;;;;;0.45;85.97;97852.59;1713858;83;21195;-72
2021/01/03 01:15:43;;;;;;;84.25;42.20;;;;;;;0.43;86.02;97849.34;1713833;83;21064;-72
2021/01/03 01:18:09;;;;;;;105.55;53.23;;;;;;;0.36;86.08;97848.58;1713765;83;21224;-72
2021/01/03 01:20:35;;;;;;;98.00;54.42;;;;;;;0.41;86.32;97859.91;1713770;83;21484;-72
2021/01/03 01:23:02;;;;;;;111.57;60.33;;;;;;;0.45;86.44;97859.27;1713774;83;22080;-72
2021/01/03 01:25:30;;;;;;;126.95;64.70;;;;;;;0.49;86.46;97862.30;1713691;83;21203;-72
2021/01/03 01:27:57;;;;;;;106.30;54.98;;;;;;;0.50;86.03;97866.59;1713747;83;21156;-72
2021/01/03 01:30:24;;;;;;;102.50;55.60;;;;;;;0.49;86.10;97860.44;1713695;83;21656;-72
2021/01/03 01:32:50;;;;;;;99.97;54.08;;;;;;;0.54;86.20;97853.13;1713660;83;21446;-72
2021/01/03 01:35:21;;;;;;;115.32;55.48;;;;;;;0.50;86.11;97853.25;1713760;83;21636;-72
2021/01/03 01:37:48;;;;;;;104.80;49.13;;;;;;;0.50;85.91;97855.92;1713725;83;21537;-73
2021/01/03 01:40:16;;;;;;;102.12;53.40;;;;;;;0.48;85.83;97858.00;1713732;83;21203;-73
2021/01/03 01:42:44;;;;;;;96.40;50.50;;;;;;;0.43;85.90;97856.52;1713811;83;21501;-73
2021/01/03 01:45:11;;;;;;;105.00;55.17;;;;;;;0.40;86.00;97852.95;1713971;83;21156;-73
2021/01/03 01:47:39;;;;;;;106.75;53.75;;;;;;;0.37;86.00;97854.20;1713691;83;21266;-73
2021/01/03 01:50:11;;;;;;;92.40;45.40;;;;;;;0.23;86.74;97850.02;1713627;83;21164;-73
2021/01/03 01:52:45;;;;;;;95.65;51.63;;;;;;;0.21;86.73;97848.09;1713798;83;21140;-73
2021/01/03 01:55:23;;;;;;;89.58;45.45;;;;;;;0.24;86.51;97838.31;1713769;83;21120;-73
2021/01/03 01:58:09;;;;;;;96.15;48.65;;;;;;;0.20;87.02;97835.28;1713773;83;21481;-73
2021/01/03 02:00:35;;;;;;;101.87;50.23;;;;;;;0.27;86.83;97835.23;1710808;82;21112;-73
2021/01/03 02:03:19;;;;;;;103.10;52.48;;;;;;;0.28;86.85;97836.86;1713503;83;21526;-72
2021/01/03 02:05:57;;;;;;;77.42;40.98;;;;;;;0.31;86.53;97828.41;1713207;82;21628;-72
2021/01/03 02:08:34;;;;;;;70.37;34.85;;;;;;;0.30;86.54;97823.31;1713749;83;21187;-73
2021/01/03 02:11:01;;;;;;;91.32;42.65;;;;;;;0.28;86.23;97830.20;1713988;83;21037;-73
2021/01/03 02:13:35;;;;;;;86.05;43.95;;;;;;;0.22;87.02;97820.40;1713909;83;21247;-73
2021/01/03 02:16:08;;;;;;;77.05;38.10;;;;;;;0.22;87.18;97821.21;1713838;83;21477;-72
2021/01/03 02:18:35;;;;;;;78.25;38.05;;;;;;;0.29;86.76;97825.16;1713904;83;21577;-73
2021/01/03 02:21:22;;;;;;;68.65;34.25;;;;;;;0.30;86.22;97828.12;1713909;83;21056;-73
2021/01/03 02:24:13;;;;;;;70.92;36.88;;;;;;;0.26;86.22;97822.94;1713870;83;21148;-72
2021/01/03 02:26:49;;;;;;;80.20;39.88;;;;;;;0.30;86.33;97823.31;1713929;83;21238;-72
2021/01/03 02:29:18;;;;;;;69.77;34.05;;;;;;;0.32;86.43;97828.70;1713851;83;21124;-73
2021/01/03 02:31:49;;;;;;;59.53;32.08;;;;;;;0.35;86.45;97819.48;1713916;83;21577;-73
2021/01/03 02:34:26;;;;;;;104.83;46.05;;;;;;;0.38;86.60;97816.37;1713957;83;21140;-73
2021/01/03 02:36:58;;;;;;;97.42;48.90;;;;;;;0.31;86.73;97810.27;1717042;82;21207;-73
2021/01/03 02:39:52;;;;;;;78.28;39.67;;;;;;;0.30;86.46;97805.98;1721512;83;21600;-73
2021/01/03 02:42:23;;;;;;;76.77;37.80;;;;;;;0.30;86.51;97803.31;1713757;83;21068;-72
2021/01/03 02:44:49;;;;;;;83.60;44.88;;;;;;;0.28;86.42;97800.88;1713826;83;21147;-73
2021/01/03 02:47:15;;;;;;;76.22;41.70;;;;;;;0.28;86.41;97800.36;1713741;83;21216;-73
2021/01/03 02:49:42;;;;;;;86.97;45.40;;;;;;;0.25;86.53;97798.63;1713832;83;21612;-73
2021/01/03 02:52:11;;;;;;;81.10;37.80;;;;;;;0.23;86.85;97794.86;1713810;83;21529;-73
2021/01/03 02:54:38;;;;;;;77.70;36.77;;;;;;;0.26;86.87;97787.77;1713825;83;21544;-73
2021/01/03 02:57:04;;;;;;;64.70;34.30;;;;;;;0.25;87.32;97783.45;1713690;83;21611;-73
2021/01/03 02:59:31;;;;;;;69.15;34.38;;;;;;;0.32;86.95;97778.06;1713923;83;21227;-72
2021/01/03 03:01:57;;;;;;;77.45;36.68;;;;;;;0.33;87.05;97777.55;1713806;83;21140;-72
2021/01/03 03:04:23;;;;;;;72.87;36.42;;;;;;;0.33;87.11;97766.88;1713883;83;21250;-72
2021/01/03 03:06:49;;;;;;;59.83;31.12;;;;;;;0.32;86.97;97757.27;1713727;83;21085;-72
2021/01/03 03:09:16;;;;;;;69.32;35.95;;;;;;;0.36;86.52;97757.95;1713879;83;21206;-72
2021/01/03 03:11:47;;;;;;;73.15;36.17;;;;;;;0.34;86.51;97752.52;1713804;83;21497;-72
2021/01/03 03:14:14;;;;;;;71.95;35.45;;;;;;;0.35;86.48;97741.66;1713829;83;21196;-73
2021/01/03 03:16:41;;;;;;;66.72;34.53;;;;;;;0.44;86.61;97750.19;1713896;83;21198;-73
2021/01/03 03:19:07;;;;;;;63.78;31.73;;;;;;;0.49;86.62;97755.64;1713885;83;21208;-73
2021/01/03 03:21:33;;;;;;;59.70;32.30;;;;;;;0.50;86.47;97758.09;1713768;83;21489;-73
2021/01/03 03:23:59;;;;;;;66.45;32.40;;;;;;;0.47;86.34;97756.39;1713750;83;21207;-72
2021/01/03 03:26:26;;;;;;;81.97;37.65;;;;;;;0.39;86.74;97746.83;1713949;83;21409;-72
2021/01/03 03:28:52;;;;;;;86.10;43.38;;;;;;;0.23;86.95;97746.89;1713823;83;21208;-73
2021/01/03 03:31:20;;;;;;;85.50;44.88;;;;;;;0.18;87.03;97743.27;1713711;83;21096;-73
2021/01/03 03:33:47;;;;;;;92.07;47.27;;;;;;;0.22;86.71;97741.78;1746239;81;21604;-73
2021/01/03 03:36:15;;;;;;;76.35;42.62;;;;;;;0.19;86.74;97731.05;1713817;83;21481;-73
2021/01/03 03:38:42;;;;;;;58.23;29.05;;;;;;;0.16;86.99;97735.98;1721610;83;21033;-73
2021/01/03 03:41:08;;;;;;;76.35;41.40;;;;;;;0.19;86.56;97731.05;1713889;83;21211;-73
2021/01/03 03:43:34;;;;;;;73.97;38.65;;;;;;;0.22;86.49;97729.78;1713690;83;21596;-73
2021/01/03 03:46:01;;;;;;;75.20;38.80;;;;;;;0.24;86.75;97725.86;1713792;83;21517;-73
2021/01/03 03:48:27;;;;;;;75.72;40.10;;;;;;;0.32;87.00;97718.09;1713729;83;21533;-73
2021/01/03 03:50:53;;;;;;;66.72;36.30;;;;;;;0.34;86.85;97708.53;1713830;83;21192;-73
2021/01/03 03:53:20;;;;;;;71.97;35.15;;;;;;;0.35;86.85;97703.53;1713750;83;21199;-73
2021/01/03 03:55:46;;;;;;;69.92;35.20;;;;;;;0.42;86.93;97701.58;1713721;83;21164;-73
2021/01/03 03:58:12;;;;;;;71.00;36.65;;;;;;;0.48;86.31;97710.03;1713759;83;21081;-73
2021/01/03 04:00:38;;;;;;;60.83;36.77;;;;;;;0.42;86.13;97722.39;1713767;83;21465;-73
2021/01/03 04:03:05;;;;;;;74.92;38.98;;;;;;;0.42;86.43;97718.91;1713712;83;21145;-73
2021/01/03 04:05:31;;;;;;;71.15;36.90;;;;;;;0.46;86.48;97721.44;1713749;83;22147;-73
2021/01/03 04:07:57;;;;;;;76.28;38.95;;;;;;;0.47;86.54;97719.06;1713673;83;21144;-73
2021/01/03 04:10:24;;;;;;;78.05;38.25;;;;;;;0.53;86.60;97723.00;1713873;83;21214;-73
2021/01/03 04:12:50;;;;;;;94.40;47.10;;;;;;;0.56;86.34;97719.06;1721622;83;21056;-73
2021/01/03 04:15:17;;;;;;;74.25;36.65;;;;;;;0.62;86.53;97712.84;1713825;83;21235;-73
2021/01/03 04:17:44;;;;;;;55.25;27.62;;;;;;;0.71;86.68;97711.50;1713845;83;21230;-73
2021/01/03 04:20:16;;;;;;;99.28;44.70;;;;;;;0.84;85.97;97707.32;1713700;83;21565;-73
2021/01/03 04:22:42;;;;;;;128.12;64.90;;;;;;;0.88;85.75;97696.22;1713864;83;21063;-73
2021/01/03 04:25:11;;;;;;;115.30;56.08;;;;;;;0.87;85.52;97695.93;1713768;83;21191;-73
2021/01/03 04:27:37;;;;;;;44.77;23.27;;;;;;;0.86;85.57;97685.78;1713939;83;21116;-73
2021/01/03 04:30:06;;;;;;;55.23;26.73;;;;;;;0.90;85.57;97686.94;1713778;83;22085;-73
2021/01/03 04:32:32;;;;;;;66.62;33.70;;;;;;;0.95;85.52;97689.77;1713817;83;21171;-72
2021/01/03 04:34:58;;;;;;;59.10;32.13;;;;;;;0.99;85.07;97690.92;1713727;83;21096;-72
2021/01/03 04:37:24;;;;;;;53.33;27.52;;;;;;;0.96;85.01;97695.91;1713754;83;21173;-73
2021/01/03 04:39:51;;;;;;;49.18;26.12;;;;;;;0.99;85.35;97706.12;1713733;83;21640;-73
2021/01/03 04:42:22;;;;;;;55.63;28.47;;;;;;;1.00;85.51;97695.73;1713702;83;22075;-73
2021/01/03 04:44:58;;;;;;;58.13;29.98;;;;;;;1.01;85.30;97688.02;1713711;83;21140;-73
2021/01/03 04:47:29;;;;;;;70.37;34.23;;;;;;;0.96;84.96;97686.56;1713717;83;21215;-72
2021/01/03 04:50:19;;;;;;;57.75;30.12;;;;;;;0.90;85.06;97692.80;1713809;83;21568;-73
2021/01/03 04:53:24;;;;;;;57.98;30.50;;;;;;;0.75;85.06;97696.67;1713238;82;21148;-72
2021/01/03 04:55:54;;;;;;;63.83;31.00;;;;;;;0.69;84.95;97695.44;1713042;82;21259;-74
2021/01/03 04:58:43;;;;;;;60.88;31.00;;;;;;;0.57;85.25;97690.03;1713626;82;21576;-74
2021/01/03 05:01:33;;;;;;;62.67;30.55;;;;;;;0.55;85.87;97695.59;1713978;81;23735;-72
2021/01/03 05:04:26;;;;;;;64.72;32.08;;;;;;;0.59;85.68;97711.12;1697401;83;21073;-72
2021/01/03 05:06:53;;;;;;;60.40;33.70;;;;;;;0.52;85.75;97708.05;1713845;83;21037;-73
2021/01/03 05:09:19;;;;;;;58.28;33.08;;;;;;;0.48;86.34;97713.51;1713775;83;21259;-73
2021/01/03 05:12:26;;;;;;;55.90;28.38;;;;;;;0.46;86.44;97706.26;1713706;83;21105;-73
2021/01/03 05:15:03;;;;;;;67.67;36.83;;;;;;;0.45;86.29;97695.30;1713725;83;21120;-72
2021/01/03 05:17:29;;;;;;;64.77;35.65;;;;;;;0.33;86.86;97694.40;1713734;83;21478;-73
2021/01/03 05:19:55;;;;;;;57.73;29.42;;;;;;;0.33;86.70;97707.72;1713752;83;21211;-73
2021/01/03 05:22:36;;;;;;;44.45;26.07;;;;;;;0.36;86.11;97719.30;1713730;83;21201;-72
2021/01/03 05:25:06;;;;;;;50.65;25.12;;;;;;;0.41;86.07;97733.27;1713647;83;21133;-72
2021/01/03 05:27:33;;;;;;;54.98;26.65;;;;;;;0.46;86.34;97728.11;1713805;83;21475;-73
2021/01/03 05:30:18;;;;;;;53.25;28.98;;;;;;;0.56;86.30;97719.06;1713691;83;21667;-72
2021/01/03 05:32:44;;;;;;;56.35;32.95;;;;;;;0.53;86.20;97723.52;1713864;83;21199;-73
2021/01/03 05:35:26;;;;;;;71.60;35.73;;;;;;;0.55;86.18;97720.92;1713774;83;21355;-73
2021/01/03 05:37:56;;;;;;;64.15;33.73;;;;;;;0.55;86.20;97715.58;1713711;83;21564;-72
2021/01/03 05:40:36;;;;;;;61.48;32.55;;;;;;;0.53;86.24;97711.52;1697559;83;21569;-73
2021/01/03 05:43:21;;;;;;;61.40;29.55;;;;;;;0.54;85.90;97707.30;1713722;83;21530;-72
2021/01/03 05:46:18;;;;;;;55.45;28.42;;;;;;;0.51;85.97;97711.75;1713967;83;21123;-72
2021/01/03 05:49:07;;;;;;;50.25;26.93;;;;;;;0.50;85.66;97710.09;1713915;83;21644;-73
2021/01/03 05:51:43;;;;;;;65.30;33.53;;;;;;;0.43;85.57;97721.90;1713846;83;21754;-73
2021/01/03 05:54:14;;;;;;;63.83;36.40;;;;;;;0.41;85.76;97720.77;1713822;83;21057;-73
2021/01/03 05:56:40;;;;;;;62.10;34.43;;;;;;;0.39;86.44;97704.18;1714004;83;21064;-73
2021/01/03 05:59:07;;;;;;;66.90;35.73;;;;;;;0.42;86.57;97696.25;1746576;81;21517;-73
2021/01/03 06:01:35;;;;;;;74.20;37.67;;;;;;;0.42;86.30;97697.06;1721824;83;22239;-73
2021/01/03 06:04:09;;;;;;;76.37;40.00;;;;;;;0.39;85.98;97694.84;1713735;83;21114;-73
2021/01/03 06:06:49;;;;;;;74.10;40.03;;;;;;;0.39;86.11;97694.04;1713935;83;21132;-72
2021/01/03 06:09:18;;;;;;;64.70;32.55;;;;;;;0.40;86.27;97689.00;1712788;82;21545;-72
2021/01/03 06:12:04;;;;;;;59.00;31.20;;;;;;;0.38;85.70;97673.23;1714070;83;21124;-72
2021/01/03 06:14:30;;;;;;;69.58;35.03;;;;;;;0.33;85.69;97674.41;1713849;83;21466;-72
2021/01/03 06:17:16;;;;;;;67.55;32.95;;;;;;;0.25;85.59;97662.70;1713814;83;21561;-72
2021/01/03 06:19:52;;;;;;;60.38;27.22;;;;;;;0.21;85.85;97664.20;1717902;81;21073;-72
2021/01/03 06:22:38;;;;;;;539.17;245.82;;;;;;;0.20;86.00;97683.37;1713943;83;21163;-73
2021/01/03 06:25:26;;;;;;;224.05;95.65;;;;;;;0.21;86.33;97689.00;1713866;83;21171;-74
2021/01/03 06:27:54;;;;;;;262.60;118.85;;;;;;;0.33;86.59;97687.73;1713970;83;21984;-73
2021/01/03 06:30:22;;;;;;;119.62;59.77;;;;;;;0.42;86.93;97674.92;1697480;83;21132;-73
2021/01/03 06:33:15;;;;;;;96.33;51.77;;;;;;;0.40;86.92;97655.67;1714107;83;21298;-73
2021/01/03 06:35:49;;;;;;;73.00;36.55;;;;;;;0.39;86.79;97650.86;1650041;86;21064;-72
2021/01/03 06:38:35;;;;;;;67.67;32.95;;;;;;;0.37;86.05;97653.47;1648888;87;21195;-72
2021/01/03 06:41:09;;;;;;;65.25;35.38;;;;;;;0.23;86.11;97656.80;1664612;85;21480;-73
2021/01/03 06:43:59;;;;;;;65.65;35.95;;;;;;;0.19;87.00;97642.30;1647695;87;21191;-73
2021/01/03 06:47:03;;;;;;;226.00;89.10;;;;;;;0.22;87.20;97641.32;1665554;86;21206;-73
2021/01/03 06:49:54;;;;;;;67.50;33.23;;;;;;;0.34;86.87;97648.56;1648415;87;21092;-72
2021/01/03 06:52:40;;;;;;;69.25;37.38;;;;;;;0.39;86.46;97644.72;1665159;85;21504;-73
2021/01/03 06:55:13;;;;;;;63.35;31.45;;;;;;;0.38;86.38;97643.91;1648457;87;21216;-72
2021/01/03 06:57:50;;;;;;;62.33;33.35;;;;;;;0.36;86.37;97635.85;1665146;85;21623;-72
2021/01/03 07:00:38;;;;;;;73.20;39.15;;;;;;;0.32;86.77;97630.13;1648329;87;21596;-72
2021/01/03 07:03:30;;;;;;;68.85;36.05;;;;;;;0.34;86.52;97634.72;1665381;86;21465;-72
2021/01/03 07:06:02;;;;;;;73.15;39.20;;;;;;;0.33;86.35;97646.94;1648461;87;21556;-74
2021/01/03 07:08:31;;;;;;;72.22;38.35;;;;;;;0.35;86.83;97650.22;1665505;86;22176;-72
2021/01/03 07:10:57;;;;;;;97.25;51.40;;;;;;;0.36;86.42;97638.00;1648485;87;21572;-72
2021/01/03 07:13:35;;;;;;;84.58;48.15;;;;;;;0.39;86.63;97638.87;1665473;86;21632;-72
2021/01/03 07:16:01;;;;;;;431.37;142.13;;;;;;;0.44;86.56;97648.36;1648418;87;21122;-73
2021/01/03 07:18:49;;;;;;;445.05;147.57;;;;;;;0.55;86.48;97654.26;1665439;86;21159;-72
2021/01/03 07:21:30;;;;;;;153.00;66.80;;;;;;;0.58;86.42;97660.17;1648617;87;21214;-73
2021/01/03 07:23:56;;;;;;;97.40;48.52;;;;;;;0.68;86.44;97662.59;1664406;85;21379;-73
2021/01/03 07:26:31;;;;;;;133.87;57.50;;;;;;;0.72;86.42;97666.98;1640623;87;21514;-73
2021/01/03 07:29:16;;;;;;;108.20;55.10;;;;;;;0.76;86.44;97667.63;1665435;86;21166;-72
2021/01/03 07:32:00;;;;;;;107.37;54.98;;;;;;;0.78;86.22;97664.75;1638459;87;21060;-72
2021/01/03 07:34:30;;;;;;;75.47;42.88;;;;;;;0.74;86.03;97663.03;1650422;86;21543;-73
2021/01/03 07:37:17;;;;;;;86.90;44.88;;;;;;;0.70;85.61;97668.54;1648167;86;21179;-73
2021/01/03 07:40:10;;;;;;;111.65;54.90;;;;;;;0.60;85.61;97660.75;1665343;86;21094;-72
2021/01/03 07:42:48;;;;;;;244.82;98.50;;;;;;;0.60;85.97;97670.09;1648325;86;21199;-73
2021/01/03 07:45:21;;;;;;;206.63;90.13;;;;;;;0.68;86.03;97671.93;1665494;86;21182;-73
2021/01/03 07:47:50;;;;;;;134.05;65.25;;;;;;;0.74;86.06;97662.23;1648472;87;21288;-71
2021/01/03 07:50:28;;;;;;;183.82;82.35;;;;;;;0.76;86.09;97656.95;1665319;86;21152;-73
2021/01/03 07:52:58;;;;;;;92.45;50.83;;;;;;;0.87;86.09;97664.73;1665389;86;21596;-72
2021/01/03 07:55:32;;;;;;;98.17;53.10;;;;;;;0.90;85.90;97668.79;1648287;86;21144;-73
2021/01/03 07:58:14;;;;;;;94.30;47.03;;;;;;;0.88;86.11;97666.88;1664785;85;21591;-73
2021/01/03 08:00:42;;;;;;;180.00;90.70;;;;;;;0.90;85.67;97673.60;1648383;87;21488;-73
2021/01/03 08:03:17;;;;;;;143.78;74.82;;;;;;;0.84;85.87;97660.64;1665452;86;21154;-73
2021/01/03 08:05:44;;;;;;;106.90;54.60;;;;;;;0.90;86.21;97655.45;1622538;87;21094;-72
2021/01/03 08:08:33;;;;;;;111.12;58.80;;;;;;;0.96;85.93;97663.89;1665266;86;21583;-73
2021/01/03 08:11:26;;;;;;;121.95;60.43;;;;;;;1.03;85.87;97674.77;1737089;82;21517;-73
2021/01/03 08:14:18;;;;;;;110.57;56.90;;;;;;;1.12;85.75;97680.59;1707572;82;21466;-73
2021/01/03 08:16:44;;;;;;;83.30;43.25;;;;;;;1.25;85.93;97672.91;1677601;85;21048;-73
2021/01/03 08:19:11;;;;;;;67.30;37.05;;;;;;;1.28;85.68;97666.60;1660004;86;21212;-73
2021/01/03 08:21:40;;;;;;;72.35;42.53;;;;;;;1.38;85.68;97675.38;1660099;86;21062;-72
2021/01/03 08:24:16;;;;;;;98.52;53.65;;;;;;;1.50;85.69;97693.56;1655308;85;21156;-72
2021/01/03 08:26:58;;;;;;;90.87;49.45;;;;;;;1.62;85.56;97686.41;1676948;85;21584;-73
2021/01/03 08:29:41;;;;;;;61.37;31.65;;;;;;;1.66;85.17;97680.06;1682386;85;21580;-73
2021/01/03 08:32:22;;;;;;;59.27;32.78;;;;;;;1.79;84.70;97681.69;1682384;85;21635;-73
2021/01/03 08:34:48;;;;;;;75.47;36.33;;;;;;;1.72;84.63;97680.48;1677264;85;21160;-73
2021/01/03 08:37:24;;;;;;;76.35;42.08;;;;;;;1.75;84.76;97685.36;1660042;85;21077;-73
2021/01/03 08:39:51;;;;;;;79.42;41.10;;;;;;;1.83;85.12;97693.03;1660036;86;21303;-72
2021/01/03 08:42:23;;;;;;;80.25;43.13;;;;;;;2.02;85.36;97694.25;1682318;85;21115;-73
2021/01/03 08:44:52;;;;;;;107.05;54.90;;;;;;;2.16;85.22;97691.12;1682463;85;21171;-73
2021/01/03 08:47:23;;;;;;;123.25;59.83;;;;;;;2.28;84.91;97691.63;1682505;85;21211;-73
2021/01/03 08:50:11;;;;;;;108.45;59.40;;;;;;;2.32;84.61;97690.13;1682419;85;21592;-72
2021/01/03 08:52:38;;;;;;;71.77;37.17;;;;;;;2.36;84.39;97683.24;1679748;85;21488;-72
2021/01/03 08:55:10;;;;;;;60.20;33.75;;;;;;;2.41;84.06;97694.88;1677110;85;21501;-72
2021/01/03 08:57:37;;;;;;;63.52;36.40;;;;;;;2.43;83.79;97694.10;1682279;85;21619;-73
2021/01/03 09:00:06;;;;;;;70.00;39.42;;;;;;;2.51;83.27;97696.42;1677273;85;21060;-73
2021/01/03 09:02:32;;;;;;;56.23;31.95;;;;;;;2.66;82.51;97697.27;1660156;86;21588;-73
2021/01/03 09:05:01;;;;;;;72.97;44.10;;;;;;;2.83;83.48;97696.81;1682272;85;21632;-73
2021/01/03 09:07:34;;;;;;;64.67;42.97;;;;;;;2.85;81.91;97694.41;1677426;85;21199;-72
2021/01/03 09:10:01;;;;;;;55.35;31.55;;;;;;;2.98;83.14;97702.15;1659980;85;21160;-73
2021/01/03 09:12:42;;;;;;;121.02;63.10;;;;;;;3.03;83.25;97700.92;1682251;84;21239;-73
2021/01/03 09:15:21;;;;;;;100.02;54.95;;;;;;;3.04;82.65;97687.29;1681834;84;21140;-72
2021/01/03 09:18:10;;;;;;;111.50;68.62;;;;;;;3.09;82.88;97686.59;1655191;85;21135;-73
2021/01/03 09:20:44;;;;;;;71.82;44.27;;;;;;;2.99;82.03;97692.56;1677277;85;21083;-72
2021/01/03 09:23:21;;;;;;;73.02;44.18;;;;;;;2.99;82.73;97700.59;1682409;85;21135;-73
2021/01/03 09:25:55;;;;;;;92.88;50.25;;;;;;;3.00;83.12;97696.86;1682310;85;21192;-71
2021/01/03 09:28:31;;;;;;;89.20;51.18;;;;;;;3.09;83.36;97698.63;1682504;85;21164;-73
2021/01/03 09:31:25;;;;;;;109.70;59.00;;;;;;;3.10;82.63;97698.92;1678931;85;21216;-73
2021/01/03 09:33:56;;;;;;;78.72;44.85;;;;;;;3.04;81.71;97698.53;1682356;85;21569;-72
2021/01/03 09:36:47;;;;;;;122.70;84.22;;;;;;;3.03;82.07;97700.39;1648406;86;21127;-73
2021/01/03 09:39:45;;;;;;;126.80;81.20;;;;;;;2.94;82.13;97692.98;1660092;86;21121;-73
2021/01/03 09:42:37;;;;;;;189.77;78.62;;;;;;;2.94;82.28;97693.80;1660020;86;21113;-72
2021/01/03 09:45:15;;;;;;;212.55;83.27;;;;;;;2.96;81.00;97678.83;1660079;85;22088;-73
2021/01/03 09:47:44;;;;;;;201.58;94.07;;;;;;;3.01;82.10;97675.73;1682130;85;21596;-73
2021/01/03 09:50:25;;;;;;;138.12;67.95;;;;;;;2.95;82.40;97671.33;1682274;85;21184;-73
2021/01/03 09:52:57;;;;;;;116.80;64.97;;;;;;;3.01;82.43;97679.75;1682403;85;21600;-72
2021/01/03 09:55:33;;;;;;;361.98;147.05;;;;;;;3.04;81.97;97677.92;1681036;85;21569;-72
2021/01/03 09:58:07;;;;;;;404.50;168.40;;;;;;;3.08;81.55;97672.92;1682444;85;21254;-73
2021/01/03 10:00:54;;;;;;;260.08;119.08;;;;;;;3.20;82.17;97676.34;1682341;85;21087;-73
2021/01/03 10:03:26;;;;;;;222.00;109.48;;;;;;;3.25;81.56;97680.98;1682266;85;21171;-72
2021/01/03 10:05:53;;;;;;;215.22;95.25;;;;;;;3.15;81.54;97666.05;1676583;85;21589;-73
2021/01/03 10:08:26;;;;;;;222.07;103.30;;;;;;;3.27;81.87;97668.97;1659990;86;21224;-73
2021/01/03 10:10:57;;;;;;;263.62;124.58;;;;;;;3.31;81.95;97665.27;1682308;85;21568;-73
2021/01/03 10:13:25;;;;;;;205.52;100.05;;;;;;;3.39;82.41;97650.14;1677220;85;21564;-73
2021/01/03 10:15:51;;;;;;;208.55;103.10;;;;;;;3.46;81.79;97649.47;1660028;85;21153;-73
2021/01/03 10:18:33;;;;;;;287.33;142.77;;;;;;;3.57;82.10;97657.95;1682301;85;21702;-73
2021/01/03 10:20:59;;;;;;;420.82;204.87;;;;;;;3.56;80.93;97656.33;1677250;85;21141;-73
2021/01/03 10:23:41;;;;;;;348.10;167.22;;;;;;;3.51;81.30;97660.28;1660078;85;21296;-73
2021/01/03 10:26:26;;;;;;;275.62;138.10;;;;;;;3.56;81.49;97654.98;1630316;86;21239;-71
2021/01/03 10:28:54;;;;;;;276.77;137.62;;;;;;;3.63;81.86;97667.70;1682433;85;21572;-72
2021/01/03 10:31:25;;;;;;;207.77;107.72;;;;;;;3.70;81.90;97666.20;1682486;85;21163;-72
2021/01/03 10:33:52;;;;;;;188.50;97.85;;;;;;;3.78;81.83;97660.97;1677410;85;21148;-73
2021/01/03 10:36:23;;;;;;;173.75;92.72;;;;;;;3.79;81.11;97658.03;1682420;84;21362;-73
2021/01/03 10:38:49;;;;;;;150.45;85.30;;;;;;;3.91;81.49;97659.27;1682501;85;21199;-72
2021/01/03 10:41:16;;;;;;;151.02;80.75;;;;;;;3.99;81.37;97664.75;1682408;85;21092;-72
2021/01/03 10:43:45;;;;;;;151.60;82.65;;;;;;;4.06;81.70;97660.03;1682562;85;21192;-72
2021/01/03 10:46:11;;;;;;;136.85;73.20;;;;;;;4.11;81.69;97647.52;1682619;85;21147;-72
2021/01/03 10:48:37;;;;;;;178.57;96.32;;;;;;;4.18;81.78;97644.11;1682493;84;21215;-72
2021/01/03 10:51:04;;;;;;;207.47;106.25;;;;;;;4.22;81.75;97657.86;1682418;85;21109;-72
2021/01/03 10:53:30;;;;;;;227.97;118.13;;;;;;;4.19;81.55;97644.42;1677434;85;21219;-72
2021/01/03 10:55:57;;;;;;;249.47;125.92;;;;;;;4.20;81.78;97640.67;1660078;86;21073;-72
2021/01/03 10:58:25;;;;;;;226.30;120.05;;;;;;;4.23;81.84;97633.99;1682495;84;21668;-72
2021/01/03 11:00:51;;;;;;;170.43;91.50;;;;;;;4.23;81.37;97635.34;1677180;85;21201;-72
2021/01/03 11:03:18;;;;;;;213.05;111.95;;;;;;;4.14;80.93;97636.82;1660129;85;21240;-72
2021/01/03 11:05:44;;;;;;;259.92;137.85;;;;;;;4.06;80.87;97630.01;1660082;85;21089;-72
2021/01/03 11:08:11;;;;;;;238.68;124.75;;;;;;;4.04;81.17;97634.00;1682470;85;21636;-72
2021/01/03 11:10:37;;;;;;;288.93;143.13;;;;;;;4.06;81.43;97635.38;1677284;85;21477;-72
2021/01/03 11:13:03;;;;;;;276.60;139.97;;;;;;;4.09;80.68;97634.05;1660110;85;21633;-72
2021/01/03 11:15:30;;;;;;;265.07;133.30;;;;;;;4.04;81.00;97624.09;1659918;86;21705;-72
2021/01/03 11:17:56;;;;;;;217.15;114.50;;;;;;;4.08;81.33;97627.88;1660252;85;21569;-72
2021/01/03 11:20:22;;;;;;;225.40;109.10;;;;;;;4.12;81.19;97625.54;1682410;84;21251;-72
2021/01/03 11:22:49;;;;;;;185.22;96.45;;;;;;;4.10;81.02;97621.77;1682584;85;21238;-72
2021/01/03 11:25:15;;;;;;;207.32;103.62;;;;;;;4.06;81.14;97619.81;1677185;85;21195;-72
2021/01/03 11:27:42;;;;;;;210.65;113.88;;;;;;;4.03;81.36;97618.45;1660063;85;21589;-72
2021/01/03 11:30:09;;;;;;;216.27;112.03;;;;;;;4.05;81.49;97622.22;1682343;85;21227;-72
2021/01/03 11:32:36;;;;;;;203.15;108.15;;;;;;;4.05;81.64;97619.54;1682379;85;21180;-72
2021/01/03 11:35:03;;;;;;;193.13;102.40;;;;;;;4.07;81.28;97621.44;1682531;85;21224;-72
2021/01/03 11:37:31;;;;;;;191.28;103.65;;;;;;;4.02;80.95;97632.11;1682495;85;22181;-72
2021/01/03 11:39:57;;;;;;;191.77;106.22;;;;;;;3.94;81.19;97636.02;1682438;84;21172;-72
2021/01/03 11:42:33;;;;;;;187.95;100.45;;;;;;;3.92;81.22;97633.55;1682415;85;21081;-72
2021/01/03 11:44:59;;;;;;;191.43;106.78;;;;;;;3.88;81.12;97629.76;1677306;85;21185;-71